Burns Pinion Ridge Reserve, California Weather observations

Data are for 10 minute period ending at time listed.
 Day   Time   Solar   Ave.   Ave.  Ave.  Vector  Max.   Baro.   Total    
  of    of     Rad.   Air    Rel.  Wind   Wind   Wind  Press.  Precip.   
Year   Day            Temp.  Hum.  Speed  Dir.   Gust                    
2014   (PST)  Kw/m2    F      %     mph   deg.    mph    mb.     in.     
-------------------------------------------------------------------------
 211    0:00   0.00   70.8    31    1.8   254     3.1   501.8    0.00 
 211    0:10   0.00   70.7    31    2.0   243     3.9   841.6    0.00 
 211    0:20   0.00   71.6    31    2.8   225     3.7   877.3    0.00 
 211    0:30   0.00   70.7    31    1.8   262     3.6   877.3    0.00 
 211    0:40   0.00   70.6    32    1.9   239     2.5   877.2    0.00 
 211    0:50   0.00   70.2    32    1.9   225     3.0   877.2    0.00 
 211    1:00   0.00   69.5    33    0.7   340     1.8   877.2    0.00 
 211    1:10   0.00   69.6    33    0.2    12     1.5   877.3    0.00 
 211    1:20   0.00   69.9    32    0.4    51     2.3   877.4    0.00 
 211    1:30   0.00   69.8    32    1.0    65     2.3   877.4    0.00 
 211    1:40   0.00   69.4    33    0.0    34     1.0   877.4    0.00 
 211    1:50   0.00   68.8    33    0.2    69     1.0   877.3    0.00 
 211    2:00   0.00   68.5    34    1.4    44     2.9   877.3    0.00 
 211    2:10   0.00   68.9    34    1.6    43     2.3   877.2    0.00 
 211    2:20   0.00   68.8    33    0.2   328     1.3   877.1    0.00 
 211    2:30   0.00   68.6    33    0.1   292     0.8   877.1    0.00 
 211    2:40   0.00   67.9    34    0.0   324     0.1   877.1    0.00 
 211    2:50   0.00   67.8    34    0.0     0     0.0   877.1    0.00 
 211    3:00   0.00   67.4    35    0.0     0     0.0   877.1    0.00 
 211    3:10   0.00   67.3    35    0.0     0     0.0   877.1    0.00 
 211    3:20   0.00   67.0    36    0.2     9     1.5   877.1    0.00 
 211    3:30   0.00   66.9    36    1.4   342     2.3   877.0    0.00 
 211    3:40   0.00   67.8    35    0.0   257     0.9   877.0    0.00 
 211    3:50   0.00   67.6    35    1.6   304     2.9   877.0    0.00 
 211    4:00   0.00   67.9    34    0.3   303     2.8   877.0    0.00 
 211    4:10   0.00   67.3    35    0.1   343     1.0   877.0    0.00 
 211    4:20   0.00   67.0    35    0.1   346     0.9   877.1    0.00 
 211    4:30   0.00   66.7    36    0.0     0     0.0   877.1    0.00 
 211    4:40   0.00   66.5    36    0.0     0     0.0   877.2    0.00 
 211    4:50   0.00   66.1    37    0.1   295     1.0   877.2    0.00 
 211    5:00   0.00   66.6    36    0.1   218     1.2   877.3    0.00 
 211    5:10   0.01   66.5    36    0.0     0     0.0   877.3    0.00 
 211    5:20   0.01   66.6    36    0.0     0     0.0   877.4    0.00 
 211    5:30   0.03   67.6    35    0.1   232     0.9   877.4    0.00 
 211    5:40   0.05   69.5    33    0.1   260     1.0   877.5    0.00 
 211    5:50   0.09   72.6    30    0.3   315     1.3   877.5    0.00 
 211    6:00   0.12   76.4    27    0.4   315     1.6   877.7    0.00 
 211    6:10   0.15   78.7    25    0.0     0     0.0   877.8    0.00 
 211    6:20   0.18   80.9    23    0.0     0     0.0   877.9    0.00 
 211    6:30   0.22   83.9    21    0.3   341     1.7   878.1    0.00 
 211    6:40   0.25   85.0    20    0.2   343     1.5   878.3    0.00 
 211    6:50   0.29   87.0    18    0.0     0     0.0   878.4    0.00 
 211    7:00   0.33   89.0    17    0.4     5     2.0   878.5    0.00 
 211    7:10   0.36   89.5    17    0.2     9     2.2   876.6    0.00 
 211    7:20   0.40   90.5    16    0.3   343     1.5   878.6    0.00 
 211    7:30   0.43   90.4    16    1.8    63     5.8   878.5    0.00 
 211    7:40   0.47   90.6    16    1.1    58     3.3   878.5    0.00 
 211    7:50   0.51   90.8    16    2.5   150     5.6   878.5    0.00 
 211    8:00   0.54   90.7    16    2.5   146     6.5   878.5    0.00 
 211    8:10   0.57   90.8    16    3.7   136     7.8   878.4    0.00 
 211    8:20   0.60   90.3    16    4.5   132     9.1   878.5    0.00 
 211    8:30   0.64   89.8    17    4.5   119     8.3   878.4    0.00 
 211    8:40   0.67   90.1    16    4.0   109     7.3   878.4    0.00 
 211    8:50   0.70   90.3    16    4.4    80     8.0   878.4    0.00 
 211    9:00   0.74   91.4    16    4.5    77     7.8   878.4    0.00 
 211    9:10   0.75   90.5    16    3.9    94     8.0   878.4    0.00 
 211    9:20   0.68   90.3    16    4.7    92    11.0   878.4    0.00 
 211    9:30   0.80   92.3    15    4.2    66     8.6   878.3    0.00 
 211    9:40   0.84   92.8    15    4.3   139     8.8   878.3    0.00 
 211    9:50   0.86   92.3    15    5.7   197     9.5   878.2    0.00 
 211   10:00   0.89   91.9    15    2.6   270     7.8   878.2    0.00 
 211   10:10   0.90   93.8    14    5.9   155    10.3   878.1    0.00 
 211   10:20   0.91   93.9    14    3.6   143     9.9   878.1    0.00 
 211   10:30   0.92   93.6    14    5.7   190    11.1   878.0    0.00 
 211   10:40   0.94   93.6    14    6.0   334    11.8   877.9    0.00 
 211   10:50   0.88   94.3    14    4.4   189     9.4   877.9    0.00 
 211   11:00   0.96   94.8    14    6.6   211    17.7   877.9    0.00 
 211   11:10   0.97   94.6    14    4.8   212    11.4   877.9    0.00 
 211   11:20   0.98   94.1    14    6.5   218    12.2   877.8    0.00 
 211   11:30   0.98   94.2    14    5.3   229     9.7   877.7    0.00 
 211   11:40   0.98   94.4    14    6.5   249    14.8   877.6    0.00 
 211   11:50   0.98   94.9    14    5.9   212    12.6   877.6    0.00 
 211   12:00   0.98   94.9    14    5.6   228    10.9   877.6    0.00 
 211   12:10   0.96   94.8    14    5.6   245    11.3   877.5    0.00 
 211   12:20   0.98   95.2    14    5.7   242    12.8   877.5    0.00 
 211   12:30   0.96   95.3    14    5.5   243    11.8   877.4    0.00 
 211   12:40   0.92   95.5    13    5.8   146    12.8   877.4    0.00 
 211   12:50   0.98   96.0    13    8.1   142    19.4   877.3    0.00 
 211   13:00   0.98   95.8    13    7.9   186    19.1   877.3    0.00 
 211   13:10   0.79   95.8    13    6.0   201    12.5   877.2    0.00 
 211   13:20   0.44   95.2    14    5.8   180    12.5   877.2    0.00 
 211   13:30   0.68   95.0    14    5.5   159    11.9   877.1    0.00 
 211   13:40   0.91   96.5    14    5.7   210    14.2   877.1    0.00 
 211   13:50   0.85   97.3    13    6.1   167    15.9   877.0    0.00 
 211   14:00   0.52   96.1    14    5.2   164    13.7   877.0    0.00 
 211   14:10   0.75   96.6    14    5.6   174    13.9   876.9    0.00 
 211   14:20   0.83   94.9    14    8.5   221    15.2   876.8    0.00 
 211   14:30   0.79   95.5    14    7.3   237    20.2   876.6    0.00 
 211   14:40   0.76   95.8    14    6.5   212    13.4   876.5    0.00 
 211   14:50   0.74   95.7    14    6.8   216    13.6   876.5    0.00 
 211   15:00   0.70   95.5    14    7.8   222    14.7   876.4    0.00 
 211   15:10   0.66   95.6    14    6.9   218    15.1   876.4    0.00 
 211   15:20   0.65   95.3    14    7.7   214    13.4   876.4    0.00 
 211   15:30   0.62   96.4    13    6.0   186    14.5   876.2    0.00 
 211   15:40   0.58   95.5    14    6.9   200    15.6   876.1    0.00 
 211   15:50   0.55   95.9    14    7.8   195    14.3   876.1    0.00 
 211   16:00   0.52   94.7    14    7.6   203    14.8   876.1    0.00 
 211   16:10   0.48   94.8    14    7.1   207    12.2   876.1    0.00 
 211   16:20   0.44   94.8    14    6.7   207    15.1   876.0    0.00 
 211   16:30   0.40   94.5    14    6.7   209    12.3   875.9    0.00 
 211   16:40   0.37   94.4    14    7.8   209    15.0   875.8    0.00 
 211   16:50   0.34   93.5    14    7.6   210    13.6   875.9    0.00 
 211   17:00   0.31   93.2    14    8.4   216    13.8   875.8    0.00 
 211   17:10   0.26   92.0    14    9.3   211    17.3   875.8    0.00 
 211   17:20   0.23   91.3    15   10.6   215    18.3   875.8    0.00 
 211   17:30   0.20   91.1    16   10.0   217    16.8   875.8    0.00 
 211   17:40   0.17   90.7    16    9.2   214    16.1   875.9    0.00 
 211   17:50   0.14   90.2    17   10.0   213    15.7   876.0    0.00 
 211   18:00   0.11   89.9    17    7.6   214    12.3   876.1    0.00 
 211   18:10   0.08   90.1    17    4.0   222    10.2   876.2    0.00 
 211   18:20   0.06   89.4    18    5.2   217    10.2   876.3    0.00 
 211   18:30   0.02   88.4    19    5.2   219    12.2   876.4    0.00 
 211   18:40   0.00   87.0    20    4.6   201     8.3   876.5    0.00 
 211   18:50   0.00   86.3    20    5.8   208     9.5   876.6    0.00 
 211   19:00   0.00   86.0    20    6.0   208     8.8   876.7    0.00 
 211   19:10   0.00   85.5    20    5.4   187     8.0   876.8    0.00 
 211   19:20   0.00   85.1    21    5.2   207     8.9   876.9    0.00 
 211   19:30   0.00   84.8    21    4.8   200     7.5   876.9    0.00 
 211   19:40   0.00   84.9    21    4.1   202     9.4   877.1    0.00 
 211   19:50   0.00   83.7    22    1.6   164     4.8   877.2    0.00 
 211   20:00   0.00   82.9    22    1.9   153     3.3   877.3    0.00 
 211   20:10   0.00   82.2    22    0.8   330     3.9   875.5    0.00 
 211   20:20   0.00   83.1    22    4.9   313     9.0   877.4    0.00 
 211   20:30   0.00   83.1    22    5.9   325    11.5   877.5    0.00 
 211   20:40   0.00   84.2    21   10.3   314    18.2   877.6    0.00 
 211   20:50   0.00   84.5    21   11.5   312    20.6   877.6    0.00 
 211   21:00   0.00   84.2    22   10.7   309    17.8   877.5    0.00 
 211   21:10   0.00   83.7    22   10.5   312    17.2   875.8    0.00 
 211   21:20   0.00   83.8    22   12.9   312    20.8   877.7    0.00 
 211   21:30   0.00   83.9    22   14.1   316    20.1   877.7    0.00 
 211   21:40   0.00   83.6    23   13.3   316    20.8   877.8    0.00 
 211   21:50   0.00   83.4    23   12.5   312    18.7   877.8    0.00 
 211   22:00   0.00   83.2    23   12.0   317    19.8   877.9    0.00 
 211   22:10   0.00   82.6    24   11.3   334    20.2   876.2    0.00 
 211   22:20   0.00   82.3    25   10.0   339    17.5   878.1    0.00 
 211   22:30   0.00   82.1    26   13.2   325    21.2   878.0    0.00 
 211   22:40   0.00   81.8    26   12.7   326    19.0   878.0    0.00 
 211   22:50   0.00   81.7    26   14.0   324    21.9   877.9    0.00 
 211   23:00   0.00   81.7    26   13.5   317    21.2   877.9    0.00 

Return to Burns Pinion Ridge Reserve graphs page.


Western Regional Climate Center,wrcc@dri.edu